createdAt,value
2022-08-06T00:00:27.064Z,1.10
2022-08-06T00:03:00.084Z,1.20
2022-08-06T00:05:35.161Z,1.10
2022-08-06T00:08:10.894Z,1.50
2022-08-06T00:10:50.191Z,1.10
2022-08-06T00:13:24.953Z,1.30
2022-08-06T00:16:10.501Z,0.93
2022-08-06T00:18:53.753Z,1.00
2022-08-06T00:21:41.091Z,1.33
2022-08-06T00:24:25.262Z,1.10
2022-08-06T00:27:05.591Z,1.37
2022-08-06T00:29:47.199Z,1.67
2022-08-06T00:32:24.389Z,1.37
2022-08-06T00:34:59.827Z,1.20
2022-08-06T00:40:14.870Z,1.10
2022-08-06T00:42:54.680Z,1.30
2022-08-06T00:45:26.360Z,1.20
2022-08-06T00:48:37.241Z,1.07
2022-08-06T00:51:18.684Z,1.10
2022-08-06T00:54:00.711Z,1.20
2022-08-06T01:05:33.459Z,1.07
2022-08-06T01:07:58.230Z,1.27
2022-08-06T01:14:03.825Z,0.90
2022-08-06T01:16:30.989Z,1.47
2022-08-06T01:19:20.730Z,1.07
2022-08-06T01:22:31.575Z,1.30
2022-08-06T01:28:53.965Z,1.37
2022-08-06T01:31:38.699Z,1.17
2022-08-06T01:34:15.551Z,1.40
2022-08-06T01:36:53.618Z,1.00
2022-08-06T01:39:53.658Z,1.10
2022-08-06T01:42:44.023Z,1.00
2022-08-06T01:45:54.636Z,1.30
2022-08-06T01:48:42.230Z,1.00
2022-08-06T01:52:14.090Z,1.00
2022-08-06T01:58:04.630Z,0.90
2022-08-06T02:00:34.186Z,1.27
2022-08-06T02:03:17.911Z,1.23
2022-08-06T02:06:40.638Z,1.40
2022-08-06T02:09:27.783Z,1.43
2022-08-06T02:12:09.442Z,1.30
2022-08-06T02:14:46.706Z,1.30
2022-08-06T02:25:22.466Z,1.60
2022-08-06T02:28:00.114Z,1.40
2022-08-06T02:30:42.781Z,1.67
2022-08-06T02:33:18.096Z,1.53
2022-08-06T02:38:59.437Z,1.57
2022-08-06T02:41:55.563Z,1.70
2022-08-06T02:44:35.189Z,1.40
2022-08-06T02:47:17.897Z,1.50
2022-08-06T02:53:03.629Z,1.63
2022-08-06T02:55:48.311Z,1.57
2022-08-06T02:58:29.407Z,1.13
2022-08-06T03:01:29.222Z,1.70
2022-08-06T03:04:12.357Z,1.80
2022-08-06T03:06:49.013Z,1.57
2022-08-06T03:09:25.368Z,1.50
2022-08-06T03:11:59.583Z,1.40
2022-08-06T03:15:07.312Z,1.63
2022-08-06T03:17:36.261Z,1.43
2022-08-06T03:20:17.364Z,1.60
2022-08-06T03:26:04.868Z,1.47
2022-08-06T03:28:38.434Z,1.43
2022-08-06T03:31:17.808Z,1.80
2022-08-06T03:33:54.300Z,1.73
2022-08-06T03:36:41.665Z,1.60
2022-08-06T03:39:15.722Z,1.40
2022-08-06T03:50:25.761Z,2.67
2022-08-06T03:53:05.509Z,4.87
2022-08-06T03:55:43.935Z,5.43
2022-08-06T03:58:28.421Z,4.57
2022-08-06T04:01:07.704Z,2.30
2022-08-06T04:03:43.155Z,1.70
2022-08-06T04:06:20.594Z,2.30
2022-08-06T04:08:53.683Z,2.20
2022-08-06T04:12:12.969Z,2.00
2022-08-06T04:14:20.186Z,2.00
2022-08-06T04:16:58.901Z,2.10
2022-08-06T04:19:36.007Z,2.00
2022-08-06T04:22:57.174Z,2.20
2022-08-06T04:25:12.805Z,2.17
2022-08-06T04:27:51.754Z,2.30
2022-08-06T04:30:28.981Z,2.00
2022-08-06T04:33:02.445Z,2.30
2022-08-06T04:36:08.272Z,1.90
2022-08-06T04:38:31.267Z,2.00
2022-08-06T04:41:09.387Z,1.70
2022-08-06T04:43:52.965Z,1.90
2022-08-06T04:46:28.802Z,2.07
2022-08-06T04:49:02.585Z,2.03
2022-08-06T04:52:45.498Z,2.00
2022-08-06T04:54:43.007Z,1.70
2022-08-06T04:57:22.244Z,2.00
2022-08-06T05:00:04.866Z,1.80
2022-08-06T05:02:35.992Z,1.37
2022-08-06T05:05:08.904Z,1.60
2022-08-06T05:07:52.091Z,1.60
2022-08-06T05:10:28.865Z,1.60
2022-08-06T05:13:07.209Z,1.70
2022-08-06T05:15:50.900Z,1.60
2022-08-06T05:19:21.428Z,1.50
2022-08-06T05:22:05.137Z,1.20
2022-08-06T05:24:39.535Z,1.63
2022-08-06T05:27:25.066Z,1.50
2022-08-06T05:30:16.891Z,1.70
2022-08-06T05:32:50.862Z,1.53
2022-08-06T05:35:40.231Z,1.40
2022-08-06T05:38:31.246Z,1.30
2022-08-06T05:41:10.513Z,1.17
2022-08-06T05:44:00.222Z,1.50
2022-08-06T05:47:00.402Z,1.20
2022-08-06T05:49:57.773Z,1.40
2022-08-06T05:52:37.133Z,1.30
2022-08-06T05:55:11.582Z,1.27
2022-08-06T05:57:53.727Z,1.57
2022-08-06T06:00:42.541Z,1.10
2022-08-06T06:03:24.666Z,1.40
2022-08-06T06:06:04.586Z,1.07
2022-08-06T06:08:58.724Z,1.50
2022-08-06T06:11:47.036Z,1.70
2022-08-06T06:14:44.966Z,1.30
2022-08-06T06:17:39.863Z,1.40
2022-08-06T06:21:03.489Z,1.40
2022-08-06T06:23:38.036Z,1.67
2022-08-06T06:26:39.136Z,1.50
2022-08-06T06:30:05.866Z,1.60
2022-08-06T06:32:30.305Z,1.40
2022-08-06T06:35:13.526Z,1.40
2022-08-06T06:37:51.964Z,1.47
2022-08-06T06:41:00.337Z,1.60
2022-08-06T06:43:45.627Z,1.37
2022-08-06T06:46:37.327Z,1.30
2022-08-06T06:50:00.735Z,1.30
2022-08-06T06:52:30.574Z,1.40
2022-08-06T06:55:19.167Z,1.40
2022-08-06T06:57:56.516Z,1.40
2022-08-06T07:00:45.581Z,1.50
2022-08-06T07:03:21.840Z,1.40
2022-08-06T07:06:28.750Z,1.30
2022-08-06T07:09:14.864Z,1.40
2022-08-06T07:12:03.302Z,1.20
2022-08-06T07:14:37.264Z,1.63
2022-08-06T07:17:45.966Z,1.30
2022-08-06T07:20:04.990Z,1.70
2022-08-06T07:24:04.268Z,1.50
2022-08-06T07:25:33.887Z,1.50
2022-08-06T07:28:06.519Z,1.57
2022-08-06T07:30:44.724Z,1.60
2022-08-06T07:33:17.874Z,1.80
2022-08-06T07:36:08.542Z,1.60
2022-08-06T07:38:57.897Z,1.57
2022-08-06T07:41:50.725Z,1.50
2022-08-06T07:44:26.756Z,1.60
2022-08-06T07:47:23.362Z,1.40
2022-08-06T07:50:01.822Z,1.40
2022-08-06T07:52:35.356Z,1.60
2022-08-06T07:55:12.976Z,1.47
2022-08-06T07:57:55.308Z,1.50
2022-08-06T08:00:29.122Z,1.30
2022-08-06T08:03:19.373Z,1.40
2022-08-06T08:06:28.181Z,1.40
2022-08-06T08:09:06.590Z,1.70
2022-08-06T08:12:26.136Z,1.70
2022-08-06T08:14:34.670Z,1.27
2022-08-06T08:17:07.761Z,1.50
2022-08-06T08:19:39.960Z,1.70
2022-08-06T08:22:18.550Z,1.30
2022-08-06T08:24:55.722Z,1.70
2022-08-06T08:27:30.222Z,1.70
2022-08-06T08:30:06.438Z,1.70
2022-08-06T08:32:37.836Z,1.67
2022-08-06T08:35:13.534Z,1.47
2022-08-06T08:37:45.016Z,1.53
2022-08-06T08:40:18.045Z,1.60
2022-08-06T08:42:55.937Z,1.77
2022-08-06T08:45:33.863Z,1.53
2022-08-06T08:48:08.397Z,1.60
2022-08-06T08:50:42.998Z,1.60
2022-08-06T08:57:09.599Z,1.80
2022-08-06T08:59:56.959Z,1.57
2022-08-06T09:02:31.362Z,1.70
2022-08-06T09:05:03.197Z,1.70
2022-08-06T09:07:36.682Z,1.60
2022-08-06T09:10:19.597Z,1.63
2022-08-06T09:12:51.567Z,1.60
2022-08-06T09:15:27.036Z,1.53
2022-08-06T09:18:25.489Z,1.70
2022-08-06T09:20:51.224Z,1.60
2022-08-06T09:23:23.466Z,1.97
2022-08-06T09:25:57.758Z,1.37
2022-08-06T09:28:39.658Z,1.60
2022-08-06T09:31:21.686Z,1.40
2022-08-06T09:34:29.360Z,1.43
2022-08-06T09:36:54.658Z,1.37
2022-08-06T09:40:00.399Z,1.67
2022-08-06T09:42:47.215Z,1.80
2022-08-06T09:45:42.354Z,1.60
2022-08-06T09:48:22.500Z,1.47
2022-08-06T09:50:54.131Z,1.53
2022-08-06T09:53:25.446Z,1.30
2022-08-06T09:56:01.157Z,1.80
2022-08-06T09:58:37.869Z,1.47
2022-08-06T10:01:21.198Z,1.40
2022-08-06T10:04:05.166Z,1.40
2022-08-06T10:06:56.206Z,1.47
2022-08-06T10:09:44.345Z,1.50
2022-08-06T10:12:26.041Z,1.47
2022-08-06T10:14:59.052Z,1.60
2022-08-06T10:17:49.628Z,1.60
2022-08-06T10:20:27.817Z,1.50
2022-08-06T10:23:06.016Z,1.53
2022-08-06T10:25:46.404Z,1.50
2022-08-06T10:28:18.275Z,1.60
2022-08-06T10:30:50.500Z,1.40
2022-08-06T10:33:27.051Z,1.90
2022-08-06T10:36:08.873Z,1.90
2022-08-06T10:38:45.812Z,1.90
2022-08-06T10:41:59.473Z,2.00
2022-08-06T10:44:16.736Z,1.50
2022-08-06T10:46:49.005Z,1.60
2022-08-06T10:50:30.246Z,1.60
2022-08-06T10:52:18.544Z,2.00
2022-08-06T10:54:51.146Z,1.60
2022-08-06T10:57:35.652Z,2.00
2022-08-06T11:00:10.805Z,1.80
2022-08-06T11:02:57.077Z,1.70
2022-08-06T11:05:53.131Z,1.80
2022-08-06T11:08:58.941Z,1.80
2022-08-06T11:12:08.062Z,2.13
2022-08-06T11:14:43.376Z,1.80
2022-08-06T11:17:16.733Z,1.70
2022-08-06T11:19:57.612Z,1.67
2022-08-06T11:22:59.394Z,2.07
2022-08-06T11:25:45.202Z,1.73
2022-08-06T11:28:17.870Z,2.03
2022-08-06T11:30:51.376Z,2.20
2022-08-06T11:33:25.064Z,2.07
2022-08-06T11:35:59.383Z,2.30
2022-08-06T11:39:16.964Z,2.27
2022-08-06T11:41:57.518Z,2.50
2022-08-06T11:44:32.055Z,2.27
2022-08-06T11:47:22.719Z,2.30
2022-08-06T11:50:10.099Z,2.40
2022-08-06T11:52:45.797Z,2.27
2022-08-06T11:55:23.141Z,2.33
2022-08-06T11:58:25.002Z,2.47
2022-08-06T12:01:03.726Z,2.00
2022-08-06T12:03:54.348Z,2.60
2022-08-06T12:06:29.370Z,2.30
2022-08-06T12:09:35.578Z,2.33
2022-08-06T12:12:39.147Z,2.10
2022-08-06T12:15:59.019Z,2.17
2022-08-06T12:18:42.088Z,2.37
2022-08-06T12:21:14.697Z,2.20
2022-08-06T12:23:56.075Z,2.13
2022-08-06T12:26:36.066Z,2.30
2022-08-06T12:29:09.971Z,1.93
2022-08-06T12:31:49.847Z,2.43
2022-08-06T12:34:32.488Z,2.13
2022-08-06T12:37:06.085Z,2.50
2022-08-06T12:40:01.196Z,2.20
2022-08-06T12:42:54.307Z,2.30
2022-08-06T12:46:04.264Z,2.20
2022-08-06T12:48:20.572Z,2.60
2022-08-06T12:50:53.191Z,2.27
2022-08-06T12:53:24.212Z,2.40
2022-08-06T12:55:57.408Z,2.37
2022-08-06T12:58:42.692Z,2.00
2022-08-06T13:02:07.442Z,2.20
2022-08-06T13:04:30.196Z,2.07
2022-08-06T13:07:09.022Z,2.37
2022-08-06T13:10:15.486Z,2.50
2022-08-06T13:14:02.241Z,2.63
2022-08-06T13:15:42.324Z,2.30
2022-08-06T13:18:40.663Z,2.97
2022-08-06T13:21:56.173Z,2.67
2022-08-06T13:24:35.394Z,2.20
2022-08-06T13:27:08.286Z,2.37
2022-08-06T13:30:32.674Z,2.40
2022-08-06T13:32:37.084Z,2.30
2022-08-06T13:35:16.953Z,2.53
2022-08-06T13:38:06.185Z,2.57
2022-08-06T13:40:57.405Z,2.70
2022-08-06T13:43:42.711Z,2.37
2022-08-06T13:46:20.304Z,2.70
2022-08-06T13:49:01.390Z,3.30
2022-08-06T13:51:34.617Z,2.53
2022-08-06T13:54:15.615Z,2.50
2022-08-06T13:56:51.763Z,2.70
2022-08-06T13:59:39.677Z,2.50
2022-08-06T14:02:13.146Z,2.37
2022-08-06T14:04:50.443Z,2.57
2022-08-06T14:07:22.386Z,2.40
2022-08-06T14:10:09.330Z,2.30
2022-08-06T14:12:43.462Z,2.50
2022-08-06T14:15:18.163Z,2.57
2022-08-06T14:17:54.253Z,2.73
2022-08-06T14:20:27.226Z,2.80
2022-08-06T14:22:58.841Z,2.77
2022-08-06T14:26:00.173Z,2.90
2022-08-06T14:28:26.052Z,3.40
2022-08-06T14:30:57.793Z,2.87
2022-08-06T14:33:36.943Z,2.87
2022-08-06T14:36:10.895Z,2.70
2022-08-06T14:38:42.826Z,2.37
2022-08-06T14:44:16.442Z,2.73
2022-08-06T14:46:50.433Z,2.40
2022-08-06T14:49:22.082Z,2.50
2022-08-06T14:52:18.938Z,2.23
2022-08-06T14:54:55.075Z,2.30
2022-08-06T14:57:30.430Z,2.70
2022-08-06T15:00:32.853Z,2.47
2022-08-06T15:03:07.504Z,2.30
2022-08-06T15:05:41.708Z,2.50
2022-08-06T15:08:32.260Z,2.00
2022-08-06T15:11:06.139Z,2.00
2022-08-06T15:13:52.010Z,2.13
2022-08-06T15:16:47.723Z,2.00
2022-08-06T15:19:39.907Z,2.10
2022-08-06T15:22:11.875Z,2.17
2022-08-06T15:25:09.568Z,2.10
2022-08-06T15:27:50.004Z,1.83
2022-08-06T15:30:22.253Z,2.33
2022-08-06T15:33:02.071Z,2.00
2022-08-06T15:38:26.217Z,2.00
2022-08-06T15:40:57.862Z,1.80
2022-08-06T15:43:44.387Z,2.00
2022-08-06T15:46:28.644Z,2.13
2022-08-06T15:52:00.951Z,2.10
2022-08-06T15:54:38.269Z,1.80
2022-08-06T15:57:21.121Z,2.20
2022-08-06T16:00:22.951Z,1.90
2022-08-06T16:02:58.226Z,1.93
2022-08-06T16:11:53.412Z,1.83
2022-08-06T16:14:46.730Z,2.03
2022-08-06T16:18:05.984Z,2.00
2022-08-06T16:20:34.004Z,2.40
2022-08-06T16:23:11.936Z,1.97
2022-08-06T16:26:16.115Z,1.97
2022-08-06T16:31:37.630Z,2.07
2022-08-06T16:34:24.920Z,2.03
2022-08-06T16:42:51.022Z,1.83
2022-08-06T16:45:36.993Z,2.10
2022-08-06T16:48:27.941Z,1.83
2022-08-06T16:52:44.225Z,1.93
2022-08-06T17:00:03.325Z,2.00
2022-08-06T17:02:42.841Z,1.87
2022-08-06T17:05:53.063Z,2.00
2022-08-06T17:08:27.226Z,1.87
2022-08-06T17:11:01.181Z,2.20
2022-08-06T17:13:38.406Z,1.60
2022-08-06T17:16:21.205Z,1.97
2022-08-06T17:19:03.434Z,1.80
2022-08-06T17:22:16.910Z,2.10
2022-08-06T17:27:57.490Z,1.73
2022-08-06T17:42:28.511Z,2.13
2022-08-06T17:46:58.753Z,1.70
2022-08-06T17:52:06.571Z,2.43
2022-08-06T17:54:54.241Z,3.10
2022-08-06T18:00:31.668Z,1.77
2022-08-06T18:03:13.826Z,2.10
2022-08-06T18:05:46.945Z,1.80
2022-08-06T18:08:37.830Z,1.57
2022-08-06T18:11:16.350Z,2.10
2022-08-06T18:13:54.994Z,1.57
2022-08-06T18:16:30.106Z,1.80
2022-08-06T18:19:06.108Z,1.60
2022-08-06T18:21:43.781Z,1.80
2022-08-06T18:32:28.030Z,1.90
2022-08-06T18:35:17.673Z,2.03
2022-08-06T18:38:01.989Z,1.60
2022-08-06T18:40:38.956Z,2.10
2022-08-06T18:46:00.188Z,1.73
2022-08-06T18:48:49.295Z,1.90
2022-08-06T18:51:33.998Z,1.70
2022-08-06T19:21:34.243Z,1.90
2022-08-06T19:44:25.183Z,1.40
2022-08-06T19:46:30.011Z,1.50
2022-08-06T19:48:44.960Z,1.67
2022-08-06T20:04:53.272Z,1.30
2022-08-06T20:07:44.252Z,1.70
2022-08-06T20:10:40.272Z,1.20
2022-08-06T20:13:25.203Z,1.40
2022-08-06T20:16:27.552Z,1.10
2022-08-06T20:29:07.351Z,1.27
2022-08-06T20:42:02.198Z,1.10
2022-08-06T20:44:21.107Z,1.30
2022-08-06T20:47:46.253Z,1.40
2022-08-06T20:50:02.653Z,1.20
2022-08-06T20:52:36.707Z,1.10
2022-08-06T20:55:10.425Z,1.20
2022-08-06T20:57:47.669Z,1.10
2022-08-06T21:00:28.617Z,1.00
2022-08-06T21:03:28.728Z,1.00
2022-08-06T21:05:52.781Z,1.03
2022-08-06T21:08:26.417Z,1.00
2022-08-06T21:11:01.165Z,1.20
2022-08-06T21:13:36.203Z,0.73
2022-08-06T21:16:34.056Z,1.10
2022-08-06T21:19:07.439Z,1.10
2022-08-06T21:21:41.238Z,1.00
2022-08-06T21:24:16.023Z,1.10
2022-08-06T21:26:50.664Z,1.10
2022-08-06T21:30:08.086Z,1.08
2022-08-06T21:32:16.352Z,0.80
2022-08-06T21:35:09.509Z,0.80
2022-08-06T21:37:57.642Z,1.00
2022-08-06T21:40:33.146Z,0.83
2022-08-06T21:43:05.284Z,1.00
2022-08-06T21:45:50.402Z,1.00
2022-08-06T21:48:33.907Z,1.07
2022-08-06T21:51:06.338Z,1.15
2022-08-06T21:53:52.554Z,1.35
2022-08-06T21:56:36.666Z,1.07
2022-08-06T21:59:22.364Z,1.10
2022-08-06T22:02:10.603Z,1.40
2022-08-06T22:04:59.237Z,1.30
2022-08-06T22:08:06.534Z,1.40
2022-08-06T22:10:31.699Z,1.35
2022-08-06T22:13:12.310Z,1.02
2022-08-06T22:15:51.533Z,1.08
2022-08-06T22:18:28.741Z,1.25
2022-08-06T22:21:03.568Z,1.20
2022-08-06T22:23:34.522Z,1.40
2022-08-06T22:26:06.909Z,1.35
2022-08-06T22:28:41.300Z,1.20
2022-08-06T22:31:16.153Z,1.30
2022-08-06T22:34:01.044Z,1.15
2022-08-06T22:36:38.054Z,1.20
2022-08-06T22:39:24.491Z,1.48
2022-08-06T22:42:06.415Z,1.33
2022-08-06T22:45:48.013Z,1.30
2022-08-06T22:47:36.489Z,1.48
2022-08-06T22:50:11.112Z,1.30
2022-08-06T22:53:02.807Z,1.40
2022-08-06T22:55:37.552Z,1.33
2022-08-06T22:59:03.240Z,1.40
2022-08-06T23:01:08.809Z,1.10
2022-08-06T23:03:56.507Z,1.38
2022-08-06T23:06:29.184Z,1.05
2022-08-06T23:09:05.699Z,1.17
2022-08-06T23:11:37.134Z,1.13
2022-08-06T23:14:09.341Z,1.17
2022-08-06T23:16:41.743Z,1.25
2022-08-06T23:19:14.694Z,0.95
2022-08-06T23:22:00.328Z,1.08
2022-08-06T23:24:40.222Z,1.15
2022-08-06T23:27:17.509Z,1.48
2022-08-06T23:30:11.526Z,1.58
2022-08-06T23:32:48.740Z,1.27
2022-08-06T23:35:36.004Z,1.30
2022-08-06T23:38:33.503Z,1.30
2022-08-06T23:41:16.376Z,1.52
2022-08-06T23:43:51.096Z,1.33
2022-08-06T23:46:27.151Z,1.42
2022-08-06T23:49:00.083Z,1.60
2022-08-06T23:51:36.068Z,1.30
2022-08-06T23:54:28.698Z,1.15
2022-08-06T23:57:03.770Z,1.27
2022-08-06T23:59:45.383Z,1.65
